sensor_id;sensor_type;location;lat;lon;timestamp;noise_LAeq;noise_LA_min;noise_LA_max;noise_LA01;noise_LA95
45651;Laerm;31365;48.858;8.530;2023-04-24T00:00:35;40.03;35.04;50.13;;
45651;Laerm;31365;48.858;8.530;2023-04-24T00:03:05;54.08;33.90;75.35;;
45651;Laerm;31365;48.858;8.530;2023-04-24T00:05:35;39.48;32.93;42.29;;
45651;Laerm;31365;48.858;8.530;2023-04-24T00:08:04;39.35;33.90;42.09;;
45651;Laerm;31365;48.858;8.530;2023-04-24T00:10:33;48.13;32.93;66.57;;
45651;Laerm;31365;48.858;8.530;2023-04-24T00:13:01;39.23;33.44;46.33;;
45651;Laerm;31365;48.858;8.530;2023-04-24T00:15:29;40.14;35.59;43.77;;
45651;Laerm;31365;48.858;8.530;2023-04-24T00:17:58;39.47;34.31;42.47;;
45651;Laerm;31365;48.858;8.530;2023-04-24T00:20:28;41.13;35.94;44.62;;
45651;Laerm;31365;48.858;8.530;2023-04-24T00:22:58;39.85;34.69;43.04;;
45651;Laerm;31365;48.858;8.530;2023-04-24T00:25:26;39.37;32.93;44.15;;
45651;Laerm;31365;48.858;8.530;2023-04-24T00:27:54;50.22;34.31;67.94;;
45651;Laerm;31365;48.858;8.530;2023-04-24T00:30:22;39.15;30.89;51.13;;
45651;Laerm;31365;48.858;8.530;2023-04-24T00:32:51;39.36;33.90;41.96;;
45651;Laerm;31365;48.858;8.530;2023-04-24T00:35:19;56.40;32.35;76.09;;
45651;Laerm;31365;48.858;8.530;2023-04-24T00:37:47;39.37;33.90;42.41;;
45651;Laerm;31365;48.858;8.530;2023-04-24T00:40:17;39.14;32.35;42.16;;
45651;Laerm;31365;48.858;8.530;2023-04-24T00:42:46;53.60;33.44;73.99;;
45651;Laerm;31365;48.858;8.530;2023-04-24T00:45:14;39.78;32.35;58.18;;
45651;Laerm;31365;48.858;8.530;2023-04-24T00:47:45;41.83;29.92;57.35;;
45651;Laerm;31365;48.858;8.530;2023-04-24T00:50:15;39.77;35.01;44.31;;
45651;Laerm;31365;48.858;8.530;2023-04-24T00:52:43;40.54;33.44;49.74;;
45651;Laerm;31365;48.858;8.530;2023-04-24T00:55:12;39.33;33.90;42.65;;
45651;Laerm;31365;48.858;8.530;2023-04-24T00:57:42;39.32;32.93;42.35;;
45651;Laerm;31365;48.858;8.530;2023-04-24T01:00:12;39.47;33.90;43.94;;
45651;Laerm;31365;48.858;8.530;2023-04-24T01:02:44;40.05;34.31;43.99;;
45651;Laerm;31365;48.858;8.530;2023-04-24T01:05:14;41.83;35.36;50.21;;
45651;Laerm;31365;48.858;8.530;2023-04-24T01:07:45;53.27;32.93;72.84;;
45651;Laerm;31365;48.858;8.530;2023-04-24T01:10:16;39.74;32.35;50.64;;
45651;Laerm;31365;48.858;8.530;2023-04-24T01:12:48;39.10;30.89;41.89;;
45651;Laerm;31365;48.858;8.530;2023-04-24T01:15:17;39.62;31.68;43.14;;
45651;Laerm;31365;48.858;8.530;2023-04-24T01:17:46;38.83;32.93;44.15;;
45651;Laerm;31365;48.858;8.530;2023-04-24T01:20:14;38.83;30.89;41.61;;
45651;Laerm;31365;48.858;8.530;2023-04-24T01:22:45;38.93;32.58;43.19;;
45651;Laerm;31365;48.858;8.530;2023-04-24T01:25:14;39.22;32.93;42.76;;
45651;Laerm;31365;48.858;8.530;2023-04-24T01:27:43;39.72;35.36;42.41;;
45651;Laerm;31365;48.858;8.530;2023-04-24T01:30:12;39.44;33.09;43.24;;
45651;Laerm;31365;48.858;8.530;2023-04-24T01:32:42;57.37;32.93;78.15;;
45651;Laerm;31365;48.858;8.530;2023-04-24T01:35:11;58.70;33.44;78.77;;
45651;Laerm;31365;48.858;8.530;2023-04-24T01:37:40;40.01;34.31;44.23;;
45651;Laerm;31365;48.858;8.530;2023-04-24T01:40:10;51.39;32.93;69.51;;
45651;Laerm;31365;48.858;8.530;2023-04-24T01:42:40;54.16;35.66;74.62;;
45651;Laerm;31365;48.858;8.530;2023-04-24T01:45:11;57.89;35.04;83.71;;
45651;Laerm;31365;48.858;8.530;2023-04-24T01:47:40;40.69;34.69;57.23;;
45651;Laerm;31365;48.858;8.530;2023-04-24T01:50:09;53.26;34.31;75.20;;
45651;Laerm;31365;48.858;8.530;2023-04-24T01:52:38;51.36;34.31;71.98;;
45651;Laerm;31365;48.858;8.530;2023-04-24T01:55:10;40.86;35.04;61.58;;
45651;Laerm;31365;48.858;8.530;2023-04-24T01:57:39;39.89;34.31;50.01;;
45651;Laerm;31365;48.858;8.530;2023-04-24T02:00:09;40.63;34.31;64.01;;
45651;Laerm;31365;48.858;8.530;2023-04-24T02:05:12;61.85;35.94;83.16;;
45651;Laerm;31365;48.858;8.530;2023-04-24T02:07:40;44.35;36.45;64.30;;
45651;Laerm;31365;48.858;8.530;2023-04-24T02:10:10;52.19;35.04;71.44;;
45651;Laerm;31365;48.858;8.530;2023-04-24T02:12:42;58.20;35.04;79.90;;
45651;Laerm;31365;48.858;8.530;2023-04-24T02:15:11;53.97;35.66;75.29;;
45651;Laerm;31365;48.858;8.530;2023-04-24T02:17:40;40.61;35.66;49.14;;
45651;Laerm;31365;48.858;8.530;2023-04-24T02:20:08;40.70;35.66;48.52;;
45651;Laerm;31365;48.858;8.530;2023-04-24T02:22:38;54.17;35.04;75.49;;
45651;Laerm;31365;48.858;8.530;2023-04-24T02:25:07;54.76;35.36;76.76;;
45651;Laerm;31365;48.858;8.530;2023-04-24T02:27:36;52.74;36.69;70.75;;
45651;Laerm;31365;48.858;8.530;2023-04-24T02:30:07;43.51;36.20;62.61;;
45651;Laerm;31365;48.858;8.530;2023-04-24T02:32:35;62.02;38.60;82.99;;
45651;Laerm;31365;48.858;8.530;2023-04-24T02:35:04;55.68;36.20;76.92;;
45651;Laerm;31365;48.858;8.530;2023-04-24T02:37:33;44.64;36.45;61.60;;
45651;Laerm;31365;48.858;8.530;2023-04-24T02:40:01;44.66;35.66;62.26;;
45651;Laerm;31365;48.858;8.530;2023-04-24T02:42:29;58.05;36.69;75.03;;
45651;Laerm;31365;48.858;8.530;2023-04-24T02:44:59;60.35;36.91;78.24;;
45651;Laerm;31365;48.858;8.530;2023-04-24T02:47:27;52.52;36.45;71.69;;
45651;Laerm;31365;48.858;8.530;2023-04-24T02:49:55;53.65;37.12;70.19;;
45651;Laerm;31365;48.858;8.530;2023-04-24T02:52:23;52.24;35.36;71.02;;
45651;Laerm;31365;48.858;8.530;2023-04-24T02:54:52;53.67;35.66;73.20;;
45651;Laerm;31365;48.858;8.530;2023-04-24T02:57:20;51.66;36.69;71.24;;
45651;Laerm;31365;48.858;8.530;2023-04-24T02:59:49;51.75;35.66;68.95;;
45651;Laerm;31365;48.858;8.530;2023-04-24T03:02:18;58.40;35.94;75.58;;
45651;Laerm;31365;48.858;8.530;2023-04-24T03:04:47;53.78;36.20;73.65;;
45651;Laerm;31365;48.858;8.530;2023-04-24T03:07:16;59.71;37.88;78.42;;
45651;Laerm;31365;48.858;8.530;2023-04-24T03:09:47;51.22;36.45;69.49;;
45651;Laerm;31365;48.858;8.530;2023-04-24T03:12:15;59.63;39.08;75.80;;
45651;Laerm;31365;48.858;8.530;2023-04-24T03:14:44;42.24;38.05;54.39;;
45651;Laerm;31365;48.858;8.530;2023-04-24T03:17:12;57.53;38.52;76.09;;
45651;Laerm;31365;48.858;8.530;2023-04-24T03:19:42;61.33;43.34;82.69;;
45651;Laerm;31365;48.858;8.530;2023-04-24T03:22:12;54.95;42.53;73.56;;
45651;Laerm;31365;48.858;8.530;2023-04-24T03:24:42;62.79;41.75;79.77;;
45651;Laerm;31365;48.858;8.530;2023-04-24T03:27:13;65.15;42.65;80.50;;
45651;Laerm;31365;48.858;8.530;2023-04-24T03:30:02;60.55;42.35;79.74;;
45651;Laerm;31365;48.858;8.530;2023-04-24T03:32:43;64.01;41.82;86.19;;
45651;Laerm;31365;48.858;8.530;2023-04-24T03:35:16;61.92;41.89;79.26;;
45651;Laerm;31365;48.858;8.530;2023-04-24T03:37:44;62.60;40.33;79.07;;
45651;Laerm;31365;48.858;8.530;2023-04-24T03:40:33;63.05;41.14;79.08;;
45651;Laerm;31365;48.858;8.530;2023-04-24T03:43:04;65.46;41.14;83.10;;
45651;Laerm;31365;48.858;8.530;2023-04-24T03:45:32;65.03;40.89;82.33;;
45651;Laerm;31365;48.858;8.530;2023-04-24T03:48:01;65.44;40.98;83.26;;
45651;Laerm;31365;48.858;8.530;2023-04-24T03:50:30;66.62;40.33;83.51;;
45651;Laerm;31365;48.858;8.530;2023-04-24T03:53:00;65.76;41.22;79.49;;
45651;Laerm;31365;48.858;8.530;2023-04-24T03:55:35;64.13;39.81;83.47;;
45651;Laerm;31365;48.858;8.530;2023-04-24T03:58:03;63.35;38.81;79.43;;
45651;Laerm;31365;48.858;8.530;2023-04-24T04:00:32;64.07;40.80;79.28;;
45651;Laerm;31365;48.858;8.530;2023-04-24T04:03:21;64.88;40.80;83.10;;
45651;Laerm;31365;48.858;8.530;2023-04-24T04:05:51;68.65;43.49;85.93;;
45651;Laerm;31365;48.858;8.530;2023-04-24T04:08:20;63.59;40.33;81.72;;
45651;Laerm;31365;48.858;8.530;2023-04-24T04:10:49;63.59;40.33;81.72;;
45651;Laerm;31365;48.858;8.530;2023-04-24T04:13:17;63.22;39.21;79.27;;
45651;Laerm;31365;48.858;8.530;2023-04-24T04:15:46;62.88;42.88;79.47;;
45651;Laerm;31365;48.858;8.530;2023-04-24T04:18:15;63.74;44.43;81.67;;
45651;Laerm;31365;48.858;8.530;2023-04-24T04:20:43;65.42;40.62;80.04;;
45651;Laerm;31365;48.858;8.530;2023-04-24T04:23:15;60.60;40.36;77.16;;
45651;Laerm;31365;48.858;8.530;2023-04-24T04:25:56;65.82;38.95;79.61;;
45651;Laerm;31365;48.858;8.530;2023-04-24T04:28:35;65.30;44.23;78.93;;
45651;Laerm;31365;48.858;8.530;2023-04-24T04:31:05;62.67;37.70;79.32;;
45651;Laerm;31365;48.858;8.530;2023-04-24T04:33:35;65.63;42.59;81.48;;
45651;Laerm;31365;48.858;8.530;2023-04-24T04:36:06;65.89;42.29;79.29;;
45651;Laerm;31365;48.858;8.530;2023-04-24T04:38:41;66.64;44.27;83.45;;
45651;Laerm;31365;48.858;8.530;2023-04-24T04:41:28;65.88;41.46;79.18;;
45651;Laerm;31365;48.858;8.530;2023-04-24T04:43:57;66.03;40.71;80.46;;
45651;Laerm;31365;48.858;8.530;2023-04-24T04:46:26;68.02;44.42;81.27;;
45651;Laerm;31365;48.858;8.530;2023-04-24T04:49:02;66.02;42.35;78.27;;
45651;Laerm;31365;48.858;8.530;2023-04-24T04:51:31;67.90;42.98;80.62;;
45651;Laerm;31365;48.858;8.530;2023-04-24T04:54:02;66.71;45.14;79.32;;
45651;Laerm;31365;48.858;8.530;2023-04-24T04:56:31;62.82;42.16;80.66;;
45651;Laerm;31365;48.858;8.530;2023-04-24T04:59:00;65.98;43.14;80.26;;
45651;Laerm;31365;48.858;8.530;2023-04-24T05:01:28;65.56;42.88;78.15;;
45651;Laerm;31365;48.858;8.530;2023-04-24T05:03:57;65.11;43.54;79.72;;
45651;Laerm;31365;48.858;8.530;2023-04-24T05:06:26;66.39;42.03;79.10;;
45651;Laerm;31365;48.858;8.530;2023-04-24T05:08:59;66.14;42.29;79.26;;
45651;Laerm;31365;48.858;8.530;2023-04-24T05:11:49;65.84;40.89;78.84;;
45651;Laerm;31365;48.858;8.530;2023-04-24T05:14:17;65.45;44.97;80.63;;
45651;Laerm;31365;48.858;8.530;2023-04-24T05:16:46;66.54;47.02;85.00;;
45651;Laerm;31365;48.858;8.530;2023-04-24T05:19:16;68.91;43.54;87.73;;
45651;Laerm;31365;48.858;8.530;2023-04-24T05:21:45;66.86;42.59;79.38;;
45651;Laerm;31365;48.858;8.530;2023-04-24T05:24:14;65.50;44.03;81.08;;
45651;Laerm;31365;48.858;8.530;2023-04-24T05:26:50;65.42;42.22;79.46;;
45651;Laerm;31365;48.858;8.530;2023-04-24T05:29:23;64.20;42.82;82.49;;
45651;Laerm;31365;48.858;8.530;2023-04-24T05:31:54;64.49;41.22;81.26;;
45651;Laerm;31365;48.858;8.530;2023-04-24T05:34:22;66.17;43.89;81.71;;
45651;Laerm;31365;48.858;8.530;2023-04-24T05:36:54;65.32;42.16;79.61;;
45651;Laerm;31365;48.858;8.530;2023-04-24T05:39:22;66.70;45.66;79.59;;
45651;Laerm;31365;48.858;8.530;2023-04-24T05:41:54;65.53;45.51;79.35;;
45651;Laerm;31365;48.858;8.530;2023-04-24T05:44:25;67.88;43.29;85.01;;
45651;Laerm;31365;48.858;8.530;2023-04-24T05:46:53;63.14;40.53;80.36;;
45651;Laerm;31365;48.858;8.530;2023-04-24T05:49:23;66.52;42.53;78.90;;
45651;Laerm;31365;48.858;8.530;2023-04-24T05:51:51;65.36;42.71;79.70;;
45651;Laerm;31365;48.858;8.530;2023-04-24T05:54:20;66.50;44.58;79.46;;
45651;Laerm;31365;48.858;8.530;2023-04-24T05:56:49;62.31;41.61;75.59;;
45651;Laerm;31365;48.858;8.530;2023-04-24T05:59:34;65.99;44.69;81.26;;
45651;Laerm;31365;48.858;8.530;2023-04-24T06:02:02;68.43;44.19;89.28;;
45651;Laerm;31365;48.858;8.530;2023-04-24T06:04:32;65.28;41.68;83.26;;
45651;Laerm;31365;48.858;8.530;2023-04-24T06:07:01;67.69;44.07;79.32;;
45651;Laerm;31365;48.858;8.530;2023-04-24T06:09:29;65.74;41.96;80.16;;
45651;Laerm;31365;48.858;8.530;2023-04-24T06:11:57;64.65;42.59;82.10;;
45651;Laerm;31365;48.858;8.530;2023-04-24T06:14:36;63.31;43.29;76.94;;
45651;Laerm;31365;48.858;8.530;2023-04-24T06:17:18;64.06;41.22;79.00;;
45651;Laerm;31365;48.858;8.530;2023-04-24T06:19:47;66.19;40.53;84.58;;
45651;Laerm;31365;48.858;8.530;2023-04-24T06:22:16;61.96;42.47;76.07;;
45651;Laerm;31365;48.858;8.530;2023-04-24T06:24:45;63.06;42.22;76.39;;
45651;Laerm;31365;48.858;8.530;2023-04-24T06:27:14;65.92;44.35;83.83;;
45651;Laerm;31365;48.858;8.530;2023-04-24T06:29:43;65.72;41.53;83.40;;
45651;Laerm;31365;48.858;8.530;2023-04-24T06:32:12;64.14;43.04;78.13;;
45651;Laerm;31365;48.858;8.530;2023-04-24T06:34:40;68.27;44.47;94.93;;
45651;Laerm;31365;48.858;8.530;2023-04-24T06:37:09;66.56;44.03;80.89;;
45651;Laerm;31365;48.858;8.530;2023-04-24T06:39:37;62.53;40.71;77.41;;
45651;Laerm;31365;48.858;8.530;2023-04-24T06:42:05;65.29;41.38;82.16;;
45651;Laerm;31365;48.858;8.530;2023-04-24T06:44:35;62.03;39.92;77.45;;
45651;Laerm;31365;48.858;8.530;2023-04-24T06:47:10;64.04;40.80;79.33;;
45651;Laerm;31365;48.858;8.530;2023-04-24T06:49:41;65.27;43.39;78.55;;
45651;Laerm;31365;48.858;8.530;2023-04-24T06:52:10;64.97;42.65;83.75;;
45651;Laerm;31365;48.858;8.530;2023-04-24T06:54:38;65.55;44.97;76.84;;
45651;Laerm;31365;48.858;8.530;2023-04-24T06:57:06;66.03;43.54;79.89;;
45651;Laerm;31365;48.858;8.530;2023-04-24T06:59:34;63.53;42.59;80.82;;
45651;Laerm;31365;48.858;8.530;2023-04-24T07:02:03;63.65;40.03;78.43;;
45651;Laerm;31365;48.858;8.530;2023-04-24T07:04:33;63.08;41.89;84.21;;
45651;Laerm;31365;48.858;8.530;2023-04-24T07:07:02;66.95;42.35;83.49;;
45651;Laerm;31365;48.858;8.530;2023-04-24T07:09:30;66.95;42.35;83.49;;
45651;Laerm;31365;48.858;8.530;2023-04-24T07:11:58;65.51;45.30;76.51;;
45651;Laerm;31365;48.858;8.530;2023-04-24T07:14:27;63.59;40.89;75.79;;
45651;Laerm;31365;48.858;8.530;2023-04-24T07:16:55;62.83;41.14;79.35;;
45651;Laerm;31365;48.858;8.530;2023-04-24T07:19:24;64.06;41.96;79.02;;
45651;Laerm;31365;48.858;8.530;2023-04-24T07:21:54;64.45;42.22;80.27;;
45651;Laerm;31365;48.858;8.530;2023-04-24T07:24:22;62.04;40.71;75.84;;
45651;Laerm;31365;48.858;8.530;2023-04-24T07:26:53;64.44;40.80;78.09;;
45651;Laerm;31365;48.858;8.530;2023-04-24T07:29:22;63.42;43.34;77.07;;
45651;Laerm;31365;48.858;8.530;2023-04-24T07:31:50;68.13;43.24;86.58;;
45651;Laerm;31365;48.858;8.530;2023-04-24T07:34:18;62.78;43.49;77.35;;
45651;Laerm;31365;48.858;8.530;2023-04-24T07:36:47;63.63;43.90;77.15;;
45651;Laerm;31365;48.858;8.530;2023-04-24T07:39:17;65.43;39.58;80.75;;
45651;Laerm;31365;48.858;8.530;2023-04-24T07:41:46;62.97;41.88;76.69;;
45651;Laerm;31365;48.858;8.530;2023-04-24T07:44:14;62.99;41.68;78.76;;
45651;Laerm;31365;48.858;8.530;2023-04-24T07:46:42;66.83;41.22;86.24;;
45651;Laerm;31365;48.858;8.530;2023-04-24T07:49:11;61.75;40.62;76.90;;
45651;Laerm;31365;48.858;8.530;2023-04-24T07:51:41;63.65;42.93;82.30;;
45651;Laerm;31365;48.858;8.530;2023-04-24T07:54:09;61.31;42.09;80.65;;
45651;Laerm;31365;48.858;8.530;2023-04-24T07:56:38;62.12;43.19;75.38;;
45651;Laerm;31365;48.858;8.530;2023-04-24T07:59:08;64.77;41.82;78.75;;
45651;Laerm;31365;48.858;8.530;2023-04-24T08:01:37;60.84;42.16;79.24;;
45651;Laerm;31365;48.858;8.530;2023-04-24T08:04:05;64.17;40.89;79.11;;
45651;Laerm;31365;48.858;8.530;2023-04-24T08:06:34;62.25;40.13;79.72;;
45651;Laerm;31365;48.858;8.530;2023-04-24T08:09:03;64.07;42.16;79.12;;
45651;Laerm;31365;48.858;8.530;2023-04-24T08:11:31;61.12;39.92;74.59;;
45651;Laerm;31365;48.858;8.530;2023-04-24T08:14:01;62.40;42.59;82.56;;
45651;Laerm;31365;48.858;8.530;2023-04-24T08:16:29;61.15;41.06;76.02;;
45651;Laerm;31365;48.858;8.530;2023-04-24T08:18:57;60.70;40.33;76.66;;
45651;Laerm;31365;48.858;8.530;2023-04-24T08:21:26;63.80;41.75;77.30;;
45651;Laerm;31365;48.858;8.530;2023-04-24T08:23:54;60.55;45.80;74.35;;
45651;Laerm;31365;48.858;8.530;2023-04-24T08:26:22;63.81;41.14;78.92;;
45651;Laerm;31365;48.858;8.530;2023-04-24T08:28:51;61.81;42.03;75.46;;
45651;Laerm;31365;48.858;8.530;2023-04-24T08:31:21;63.99;43.14;81.23;;
45651;Laerm;31365;48.858;8.530;2023-04-24T08:33:49;61.23;41.38;77.39;;
45651;Laerm;31365;48.858;8.530;2023-04-24T08:36:17;64.64;45.20;79.91;;
45651;Laerm;31365;48.858;8.530;2023-04-24T08:38:46;61.00;42.22;74.28;;
45651;Laerm;31365;48.858;8.530;2023-04-24T08:41:15;64.25;42.53;81.18;;
45651;Laerm;31365;48.858;8.530;2023-04-24T08:43:45;62.45;42.35;79.09;;
45651;Laerm;31365;48.858;8.530;2023-04-24T08:46:16;63.41;41.96;79.50;;
45651;Laerm;31365;48.858;8.530;2023-04-24T08:48:46;62.53;44.38;77.88;;
45651;Laerm;31365;48.858;8.530;2023-04-24T08:51:15;66.19;45.11;80.30;;
45651;Laerm;31365;48.858;8.530;2023-04-24T08:53:46;63.39;44.51;74.49;;
45651;Laerm;31365;48.858;8.530;2023-04-24T08:56:15;67.05;42.35;84.73;;
45651;Laerm;31365;48.858;8.530;2023-04-24T08:58:44;64.84;41.89;81.61;;
45651;Laerm;31365;48.858;8.530;2023-04-24T09:01:12;61.99;42.47;78.55;;
45651;Laerm;31365;48.858;8.530;2023-04-24T09:03:41;65.71;42.82;83.89;;
45651;Laerm;31365;48.858;8.530;2023-04-24T09:06:11;63.99;42.71;83.62;;
45651;Laerm;31365;48.858;8.530;2023-04-24T09:08:41;62.47;42.03;75.43;;
45651;Laerm;31365;48.858;8.530;2023-04-24T09:11:11;62.81;40.98;79.66;;
45651;Laerm;31365;48.858;8.530;2023-04-24T09:13:40;62.72;42.59;80.30;;
45651;Laerm;31365;48.858;8.530;2023-04-24T09:16:08;63.45;44.94;75.85;;
45651;Laerm;31365;48.858;8.530;2023-04-24T09:18:36;60.87;44.03;73.96;;
45651;Laerm;31365;48.858;8.530;2023-04-24T09:21:08;60.87;44.03;73.96;;
45651;Laerm;31365;48.858;8.530;2023-04-24T09:23:38;63.14;43.24;81.54;;
45651;Laerm;31365;48.858;8.530;2023-04-24T09:26:09;61.16;39.92;83.09;;
45651;Laerm;31365;48.858;8.530;2023-04-24T09:28:39;64.13;41.75;79.69;;
45651;Laerm;31365;48.858;8.530;2023-04-24T09:31:13;62.85;39.46;77.84;;
45651;Laerm;31365;48.858;8.530;2023-04-24T09:33:54;66.31;44.11;86.26;;
45651;Laerm;31365;48.858;8.530;2023-04-24T09:36:29;62.84;40.98;79.41;;
45651;Laerm;31365;48.858;8.530;2023-04-24T09:39:02;64.84;40.27;80.10;;
45651;Laerm;31365;48.858;8.530;2023-04-24T09:41:32;60.99;40.80;74.03;;
45651;Laerm;31365;48.858;8.530;2023-04-24T09:44:12;64.42;42.29;79.44;;
45651;Laerm;31365;48.858;8.530;2023-04-24T09:46:41;63.90;44.19;80.46;;
45651;Laerm;31365;48.858;8.530;2023-04-24T09:49:12;61.01;42.41;74.51;;
45651;Laerm;31365;48.858;8.530;2023-04-24T09:51:42;63.27;40.71;79.06;;
45651;Laerm;31365;48.858;8.530;2023-04-24T09:54:17;61.50;39.81;76.20;;
45651;Laerm;31365;48.858;8.530;2023-04-24T09:56:49;64.35;41.38;80.09;;
45651;Laerm;31365;48.858;8.530;2023-04-24T09:59:19;62.14;39.70;77.13;;
45651;Laerm;31365;48.858;8.530;2023-04-24T10:01:47;63.14;42.03;78.37;;
45651;Laerm;31365;48.858;8.530;2023-04-24T10:04:18;65.99;41.61;82.44;;
45651;Laerm;31365;48.858;8.530;2023-04-24T10:06:48;63.96;43.54;77.34;;
45651;Laerm;31365;48.858;8.530;2023-04-24T10:09:20;63.98;41.46;77.72;;
45651;Laerm;31365;48.858;8.530;2023-04-24T10:11:50;62.89;41.06;78.21;;
45651;Laerm;31365;48.858;8.530;2023-04-24T10:14:21;66.35;43.24;83.07;;
45651;Laerm;31365;48.858;8.530;2023-04-24T10:16:53;60.99;40.03;78.82;;
45651;Laerm;31365;48.858;8.530;2023-04-24T10:19:21;62.42;38.37;76.38;;
45651;Laerm;31365;48.858;8.530;2023-04-24T10:21:52;59.69;40.03;75.12;;
45651;Laerm;31365;48.858;8.530;2023-04-24T10:24:22;65.65;42.29;81.22;;
45651;Laerm;31365;48.858;8.530;2023-04-24T10:26:51;64.33;40.33;78.02;;
45651;Laerm;31365;48.858;8.530;2023-04-24T10:29:20;63.66;43.34;75.98;;
45651;Laerm;31365;48.858;8.530;2023-04-24T10:31:49;66.26;39.58;87.84;;
45651;Laerm;31365;48.858;8.530;2023-04-24T10:34:20;62.67;40.13;78.83;;
45651;Laerm;31365;48.858;8.530;2023-04-24T10:36:52;64.33;42.76;82.38;;
45651;Laerm;31365;48.858;8.530;2023-04-24T10:39:25;63.77;41.68;78.68;;
45651;Laerm;31365;48.858;8.530;2023-04-24T10:41:55;60.88;40.80;82.70;;
45651;Laerm;31365;48.858;8.530;2023-04-24T10:44:24;61.66;41.30;77.59;;
45651;Laerm;31365;48.858;8.530;2023-04-24T10:46:55;62.03;41.53;78.41;;
45651;Laerm;31365;48.858;8.530;2023-04-24T10:49:29;63.68;42.98;81.09;;
45651;Laerm;31365;48.858;8.530;2023-04-24T10:52:01;65.77;44.47;80.75;;
45651;Laerm;31365;48.858;8.530;2023-04-24T10:54:41;63.28;43.09;77.27;;
45651;Laerm;31365;48.858;8.530;2023-04-24T10:57:29;64.15;42.59;80.85;;
45651;Laerm;31365;48.858;8.530;2023-04-24T11:00:21;62.25;41.68;81.96;;
45651;Laerm;31365;48.858;8.530;2023-04-24T12:36:05;63.18;40.33;82.00;;
45651;Laerm;31365;48.858;8.530;2023-04-24T12:38:34;60.22;40.53;75.02;;
45651;Laerm;31365;48.858;8.530;2023-04-24T12:41:08;64.59;41.61;76.84;;
45651;Laerm;31365;48.858;8.530;2023-04-24T12:43:37;63.27;41.38;77.07;;
45651;Laerm;31365;48.858;8.530;2023-04-24T12:46:05;62.07;40.33;79.20;;
45651;Laerm;31365;48.858;8.530;2023-04-24T12:48:33;64.92;41.96;79.92;;
45651;Laerm;31365;48.858;8.530;2023-04-24T12:51:02;64.55;42.09;80.84;;
45651;Laerm;31365;48.858;8.530;2023-04-24T12:53:32;64.66;43.58;76.31;;
45651;Laerm;31365;48.858;8.530;2023-04-24T12:56:00;63.21;42.93;76.50;;
45651;Laerm;31365;48.858;8.530;2023-04-24T12:58:28;60.77;40.23;78.78;;
45651;Laerm;31365;48.858;8.530;2023-04-24T13:00:56;63.49;38.05;81.32;;
45651;Laerm;31365;48.858;8.530;2023-04-24T13:03:25;61.97;43.44;78.99;;
45651;Laerm;31365;48.858;8.530;2023-04-24T13:05:53;60.22;40.23;74.43;;
45651;Laerm;31365;48.858;8.530;2023-04-24T13:08:21;66.04;46.25;82.20;;
45651;Laerm;31365;48.858;8.530;2023-04-24T13:10:51;60.47;41.46;74.79;;
45651;Laerm;31365;48.858;8.530;2023-04-24T13:13:21;65.35;40.33;86.42;;
45651;Laerm;31365;48.858;8.530;2023-04-24T13:15:49;63.25;43.90;78.75;;
45651;Laerm;31365;48.858;8.530;2023-04-24T13:18:17;64.08;43.39;76.93;;
45651;Laerm;31365;48.858;8.530;2023-04-24T13:20:45;63.84;43.34;74.85;;
45651;Laerm;31365;48.858;8.530;2023-04-24T13:23:14;64.64;42.59;78.43;;
45651;Laerm;31365;48.858;8.530;2023-04-24T13:25:43;61.78;39.81;76.91;;
45651;Laerm;31365;48.858;8.530;2023-04-24T13:28:13;64.20;38.95;79.72;;
45651;Laerm;31365;48.858;8.530;2023-04-24T13:30:41;61.56;40.89;77.41;;
45651;Laerm;31365;48.858;8.530;2023-04-24T13:33:33;65.02;42.82;82.34;;
45651;Laerm;31365;48.858;8.530;2023-04-24T13:36:01;63.27;41.46;74.93;;
45651;Laerm;31365;48.858;8.530;2023-04-24T13:38:29;61.29;43.04;76.25;;
45651;Laerm;31365;48.858;8.530;2023-04-24T13:40:58;63.20;43.34;75.31;;
45651;Laerm;31365;48.858;8.530;2023-04-24T13:43:28;62.25;42.09;75.51;;
45651;Laerm;31365;48.858;8.530;2023-04-24T13:45:57;61.58;40.80;75.54;;
45651;Laerm;31365;48.858;8.530;2023-04-24T13:48:26;61.10;42.53;76.23;;
45651;Laerm;31365;48.858;8.530;2023-04-24T13:50:54;60.48;41.22;73.73;;
45651;Laerm;31365;48.858;8.530;2023-04-24T13:53:22;63.34;42.03;76.71;;
45651;Laerm;31365;48.858;8.530;2023-04-24T13:55:50;61.03;40.13;75.46;;
45651;Laerm;31365;48.858;8.530;2023-04-24T13:58:19;67.44;43.09;82.88;;
45651;Laerm;31365;48.858;8.530;2023-04-24T14:00:48;64.67;42.88;77.31;;
45651;Laerm;31365;48.858;8.530;2023-04-24T14:03:16;63.35;42.16;75.31;;
45651;Laerm;31365;48.858;8.530;2023-04-24T14:05:45;64.79;43.54;78.88;;
45651;Laerm;31365;48.858;8.530;2023-04-24T14:08:14;65.34;43.49;78.38;;
45651;Laerm;31365;48.858;8.530;2023-04-24T14:10:42;63.61;41.61;78.29;;
45651;Laerm;31365;48.858;8.530;2023-04-24T14:13:11;65.19;40.89;86.72;;
45651;Laerm;31365;48.858;8.530;2023-04-24T14:15:39;62.08;43.04;76.45;;
45651;Laerm;31365;48.858;8.530;2023-04-24T14:18:09;63.43;41.22;81.36;;
45651;Laerm;31365;48.858;8.530;2023-04-24T14:20:38;63.99;44.11;76.37;;
45651;Laerm;31365;48.858;8.530;2023-04-24T14:23:07;62.86;44.11;75.79;;
45651;Laerm;31365;48.858;8.530;2023-04-24T14:25:36;66.37;44.80;87.68;;
45651;Laerm;31365;48.858;8.530;2023-04-24T14:28:06;62.01;44.54;76.24;;
45651;Laerm;31365;48.858;8.530;2023-04-24T14:30:34;63.18;45.48;79.25;;
45651;Laerm;31365;48.858;8.530;2023-04-24T14:33:04;58.20;41.38;71.62;;
45651;Laerm;31365;48.858;8.530;2023-04-24T14:35:36;64.84;44.43;79.03;;
45651;Laerm;31365;48.858;8.530;2023-04-24T14:38:04;66.13;45.11;80.62;;
45651;Laerm;31365;48.858;8.530;2023-04-24T14:40:33;62.13;45.89;74.37;;
45651;Laerm;31365;48.858;8.530;2023-04-24T14:43:21;63.30;44.73;76.18;;
45651;Laerm;31365;48.858;8.530;2023-04-24T14:45:50;62.37;43.86;77.76;;
45651;Laerm;31365;48.858;8.530;2023-04-24T14:48:18;62.68;44.39;78.75;;
45651;Laerm;31365;48.858;8.530;2023-04-24T14:50:49;66.23;44.03;94.39;;
45651;Laerm;31365;48.858;8.530;2023-04-24T14:53:17;62.19;44.11;74.49;;
45651;Laerm;31365;48.858;8.530;2023-04-24T14:55:45;62.19;44.58;75.69;;
45651;Laerm;31365;48.858;8.530;2023-04-24T14:58:14;61.39;45.17;76.26;;
45651;Laerm;31365;48.858;8.530;2023-04-24T15:00:42;63.46;47.12;76.73;;
45651;Laerm;31365;48.858;8.530;2023-04-24T15:03:10;65.34;48.94;77.54;;
45651;Laerm;31365;48.858;8.530;2023-04-24T15:05:39;65.54;47.38;83.61;;
45651;Laerm;31365;48.858;8.530;2023-04-24T15:08:09;65.69;47.22;80.98;;
45651;Laerm;31365;48.858;8.530;2023-04-24T15:10:37;65.07;47.48;80.66;;
45651;Laerm;31365;48.858;8.530;2023-04-24T15:13:05;65.39;48.20;77.92;;
45651;Laerm;31365;48.858;8.530;2023-04-24T15:15:33;61.40;44.54;75.19;;
45651;Laerm;31365;48.858;8.530;2023-04-24T15:18:02;61.73;43.00;84.35;;
45651;Laerm;31365;48.858;8.530;2023-04-24T15:20:31;65.26;42.76;81.29;;
45651;Laerm;31365;48.858;8.530;2023-04-24T15:22:59;67.12;45.54;82.25;;
45651;Laerm;31365;48.858;8.530;2023-04-24T15:25:30;64.48;44.80;78.20;;
45651;Laerm;31365;48.858;8.530;2023-04-24T15:27:58;62.95;40.45;77.20;;
45651;Laerm;31365;48.858;8.530;2023-04-24T15:30:28;64.26;42.59;78.14;;
45651;Laerm;31365;48.858;8.530;2023-04-24T15:32:59;63.50;43.29;74.89;;
45651;Laerm;31365;48.858;8.530;2023-04-24T15:35:28;64.31;43.68;78.33;;